Time;durP1;ratioP1;P1;durP2;ratioP2;P2;SDS_P1;SDS_P2;PMS_P1;PMS_P2;Temp;Humidity;BMP_temperature;BMP_pressure;BME280_temperature;BME280_humidity;BME280_pressure;Samples;Min_cycle;Max_cycle;Signal;HPM_P1;HPM_P2
2021/06/10 00:00:41;;;;;;;19.02;17.00;;;15.90;99.90;;;16.77;100.00;98400.66;5224685;28;20435;-61
2021/06/10 00:03:14;;;;;;;16.73;15.32;;;15.90;99.90;;;16.76;100.00;98398.88;5221173;28;20194;-61
2021/06/10 00:05:48;;;;;;;15.80;14.55;;;15.80;99.90;;;16.77;100.00;98401.56;5223925;28;20586;-61
2021/06/10 00:08:21;;;;;;;16.42;15.02;;;15.80;99.90;;;16.74;100.00;98405.66;5226538;28;20197;-61
2021/06/10 00:10:54;;;;;;;15.57;14.38;;;15.80;99.90;;;16.63;100.00;98413.88;5225769;28;20199;-60
2021/06/10 00:13:27;;;;;;;17.27;15.98;;;15.70;99.90;;;16.56;100.00;98406.66;5225312;28;20189;-61
2021/06/10 00:15:59;;;;;;;17.67;16.25;;;15.70;99.90;;;16.61;100.00;98405.16;5225504;28;20228;-61
2021/06/10 00:18:32;;;;;;;30.67;18.13;;;15.70;99.90;;;16.59;100.00;98404.22;5226361;28;20197;-61
2021/06/10 00:21:05;;;;;;;18.50;16.90;;;15.60;99.90;;;16.54;100.00;98402.25;5220646;28;20197;-60
2021/06/10 00:23:39;;;;;;;20.38;18.48;;;15.60;99.90;;;16.49;100.00;98402.06;5225159;28;20239;-60
2021/06/10 00:26:12;;;;;;;99.50;20.67;;;15.70;99.90;;;16.46;100.00;98404.53;5224248;28;20231;-60
2021/06/10 00:28:45;;;;;;;22.65;18.08;;;15.60;99.90;;;16.43;100.00;98406.97;5223379;28;20191;-60
2021/06/10 00:31:17;;;;;;;22.55;18.20;;;15.50;99.90;;;16.39;100.00;98399.91;5220370;28;20197;-61
2021/06/10 00:33:50;;;;;;;20.90;18.70;;;15.50;99.90;;;16.40;100.00;98406.84;5224457;28;20746;-60
2021/06/10 00:36:23;;;;;;;22.77;17.60;;;15.50;99.90;;;16.40;100.00;98404.28;5225740;28;20232;-60
2021/06/10 00:38:57;;;;;;;20.08;16.80;;;15.50;99.90;;;16.36;100.00;98400.66;5224854;28;20208;-60
2021/06/10 00:41:32;;;;;;;17.67;15.13;;;15.50;99.90;;;16.26;100.00;98401.09;5225706;28;20196;-60
2021/06/10 00:44:07;;;;;;;18.75;17.00;;;15.30;99.90;;;16.23;100.00;98403.53;5221789;28;20207;-60
2021/06/10 00:46:40;;;;;;;16.63;15.25;;;15.30;99.90;;;16.20;100.00;98399.13;5221562;28;20738;-60
2021/06/10 00:49:12;;;;;;;18.13;16.23;;;15.30;99.90;;;16.24;100.00;98396.69;5225152;28;20197;-61
2021/06/10 00:51:45;;;;;;;17.88;15.98;;;15.40;99.90;;;16.21;100.00;98394.84;5225446;28;20192;-60
2021/06/10 00:54:19;;;;;;;17.88;16.13;;;15.40;99.90;;;16.22;100.00;98404.34;5223684;28;20190;-61
2021/06/10 00:56:53;;;;;;;16.52;14.93;;;15.30;99.90;;;16.21;100.00;98389.69;5225080;28;20221;-60
2021/06/10 00:59:25;;;;;;;18.60;16.98;;;15.30;99.90;;;16.16;100.00;98394.63;5225535;28;20240;-60
2021/06/10 01:01:59;;;;;;;17.92;16.05;;;15.30;99.90;;;16.12;100.00;98403.06;5225702;28;20207;-61
2021/06/10 01:04:31;;;;;;;17.52;15.90;;;15.30;99.90;;;16.14;100.00;98406.59;5223538;28;20215;-61
2021/06/10 01:07:13;;;;;;;15.40;14.15;;;15.20;99.90;;;16.13;100.00;98409.97;5225399;28;20685;-60
2021/06/10 01:09:52;;;;;;;15.52;14.20;;;15.20;99.90;;;16.06;100.00;98418.28;5220844;28;20189;-60
2021/06/10 01:12:34;;;;;;;15.55;14.35;;;15.10;99.90;;;16.07;100.00;98409.72;5219829;28;20193;-59
2021/06/10 01:15:11;;;;;;;15.40;14.10;;;15.10;99.90;;;16.08;100.00;98413.16;5223335;28;20243;-59
2021/06/10 01:17:47;;;;;;;15.55;14.23;;;15.10;99.90;;;16.04;100.00;98413.84;5220264;28;20677;-60
2021/06/10 01:20:26;;;;;;;19.65;13.95;;;15.10;99.90;;;15.82;99.38;98397.41;5224976;28;20544;-60
2021/06/10 01:23:09;;;;;;;15.43;14.23;;;15.00;99.90;;;15.75;99.67;98404.00;5224414;28;20418;-60
2021/06/10 01:26:06;;;;;;;22.58;16.15;;;14.90;99.90;;;15.72;100.00;98401.28;5224754;28;20719;-60
2021/06/10 01:28:44;;;;;;;15.75;14.30;;;14.90;99.90;;;15.73;100.00;98405.59;5224730;28;20193;-60
2021/06/10 01:31:18;;;;;;;16.25;14.85;;;15.00;99.90;;;15.77;100.00;98404.97;5217734;28;20649;-60
2021/06/10 01:33:56;;;;;;;23.92;16.95;;;14.90;99.90;;;15.84;100.00;98406.09;5221800;28;20661;-60
2021/06/10 01:36:33;;;;;;;20.77;15.90;;;15.00;99.90;;;15.81;100.00;98400.81;5224379;28;20215;-60
2021/06/10 01:39:09;;;;;;;16.65;15.20;;;14.90;99.90;;;15.71;100.00;98398.66;5216983;28;20204;-60
2021/06/10 01:41:43;;;;;;;17.08;15.48;;;14.90;99.90;;;15.79;100.00;98401.56;5222815;28;20649;-60
2021/06/10 01:44:18;;;;;;;43.78;16.58;;;14.90;99.90;;;15.71;100.00;98398.66;5224135;28;20227;-60
2021/06/10 01:46:51;;;;;;;21.95;18.92;;;14.90;99.90;;;15.66;100.00;98398.41;5212852;28;20216;-60
2021/06/10 01:49:27;;;;;;;18.00;16.40;;;14.90;99.90;;;15.67;100.00;98386.38;5221646;28;20259;-60
2021/06/10 01:51:59;;;;;;;18.55;16.92;;;14.90;99.90;;;15.65;100.00;98394.06;5223426;28;20206;-60
2021/06/10 01:54:34;;;;;;;20.77;15.55;;;14.90;99.90;;;15.70;100.00;98394.28;5220126;28;20189;-60
2021/06/10 01:57:07;;;;;;;19.80;17.50;;;14.90;99.90;;;15.67;100.00;98392.41;5221977;28;20216;-60
2021/06/10 01:59:42;;;;;;;18.08;16.27;;;14.80;99.90;;;15.60;100.00;98395.53;5224835;28;20193;-60
2021/06/10 02:02:15;;;;;;;19.92;18.13;;;14.80;99.90;;;15.64;100.00;98396.56;5223675;28;20197;-60
2021/06/10 02:04:48;;;;;;;18.80;16.60;;;14.80;99.90;;;15.50;100.00;98393.34;5224171;28;20193;-60
2021/06/10 02:07:21;;;;;;;17.60;15.68;;;14.70;99.90;;;15.46;100.00;98392.31;5219785;28;20193;-61
2021/06/10 02:09:54;;;;;;;16.58;15.05;;;14.70;99.90;;;15.47;100.00;98385.47;5228740;28;20193;-60
2021/06/10 02:12:27;;;;;;;125.72;19.48;;;14.70;99.90;;;15.42;100.00;98380.09;5227468;28;20194;-60
2021/06/10 02:15:04;;;;;;;15.85;14.55;;;14.60;99.90;;;15.41;100.00;98386.06;5228480;28;20201;-60
2021/06/10 02:17:38;;;;;;;20.05;18.15;;;14.60;99.90;;;15.50;100.00;98377.88;5225040;28;20213;-60
2021/06/10 02:20:15;;;;;;;81.00;18.83;;;14.70;99.90;;;15.50;100.00;98383.03;5228098;28;20653;-60
2021/06/10 02:22:49;;;;;;;18.63;16.92;;;14.70;99.90;;;15.51;100.00;98380.53;5224021;28;20200;-60
2021/06/10 02:25:21;;;;;;;20.60;18.70;;;14.70;99.90;;;15.56;100.00;98373.00;5225590;28;20585;-60
2021/06/10 02:27:54;;;;;;;20.25;18.35;;;14.80;99.90;;;15.53;100.00;98378.91;5228331;28;20194;-60
2021/06/10 02:30:28;;;;;;;28.73;16.88;;;14.70;99.90;;;15.51;100.00;98379.66;5222396;28;20193;-59
2021/06/10 02:33:02;;;;;;;20.95;18.80;;;14.60;99.90;;;15.41;100.00;98382.63;5227634;28;20196;-60
2021/06/10 02:35:34;;;;;;;21.83;18.83;;;14.70;99.90;;;15.42;100.00;98371.50;5222151;28;20689;-60
2021/06/10 02:38:08;;;;;;;19.35;17.48;;;14.70;99.90;;;15.45;100.00;98375.13;5228080;28;20498;-60
2021/06/10 02:40:45;;;;;;;28.63;17.23;;;14.60;99.90;;;15.45;100.00;98374.19;5222059;28;20195;-61
2021/06/10 02:43:18;;;;;;;17.05;15.55;;;14.70;99.90;;;15.44;100.00;98377.59;5224553;28;20672;-61
2021/06/10 02:45:52;;;;;;;26.17;16.92;;;14.60;99.90;;;15.44;100.00;98386.22;5223659;28;20697;-61
2021/06/10 02:48:29;;;;;;;17.42;16.00;;;14.60;99.90;;;15.32;100.00;98381.38;5220329;28;20185;-60
2021/06/10 02:51:03;;;;;;;16.67;15.27;;;14.50;99.90;;;15.41;100.00;98382.63;5226952;28;20207;-60
2021/06/10 02:53:36;;;;;;;37.33;15.60;;;14.60;99.90;;;15.36;100.00;98389.25;5226837;28;20207;-60
2021/06/10 02:56:10;;;;;;;18.63;16.08;;;14.50;99.90;;;15.27;100.00;98388.00;5227023;28;20224;-61
2021/06/10 02:58:45;;;;;;;18.02;14.23;;;14.40;99.90;;;15.19;100.00;98380.72;5227717;28;20220;-60
2021/06/10 03:01:20;;;;;;;35.05;16.40;;;14.40;99.90;;;15.16;100.00;98373.72;5228210;28;20681;-60
2021/06/10 03:03:52;;;;;;;41.22;18.80;;;14.30;99.90;;;15.11;100.00;98375.22;5219074;28;20194;-60
2021/06/10 03:06:26;;;;;;;49.45;17.33;;;14.30;99.90;;;15.10;100.00;98376.00;5207903;28;20224;-60
2021/06/10 03:09:00;;;;;;;39.17;16.83;;;14.30;99.90;;;15.04;100.00;98379.19;5207765;28;20560;-60
2021/06/10 03:11:33;;;;;;;18.85;16.90;;;14.20;99.90;;;14.99;100.00;98378.06;5207916;28;20205;-60
2021/06/10 03:14:08;;;;;;;20.02;18.23;;;14.10;99.90;;;14.97;100.00;98374.56;5215515;28;20197;-60
2021/06/10 03:16:47;;;;;;;102.40;22.38;;;14.20;99.90;;;15.00;100.00;98371.25;5227561;28;20223;-60
2021/06/10 03:19:20;;;;;;;32.15;18.10;;;14.30;99.90;;;15.02;100.00;98372.19;5227288;28;20231;-60
2021/06/10 03:21:53;;;;;;;18.63;17.02;;;14.20;99.90;;;15.02;100.00;98365.38;5217949;28;20197;-60
2021/06/10 03:24:26;;;;;;;18.95;17.10;;;14.20;99.90;;;15.02;100.00;98367.94;5206853;28;20201;-60
2021/06/10 03:26:59;;;;;;;18.80;17.00;;;14.20;99.90;;;15.06;100.00;98374.13;5208299;28;20532;-60
2021/06/10 03:29:32;;;;;;;19.38;17.67;;;14.30;99.90;;;15.06;100.00;98379.28;5209202;28;20194;-60
2021/06/10 03:32:07;;;;;;;19.88;17.98;;;14.30;99.90;;;15.13;100.00;98381.31;5207514;28;20198;-60
2021/06/10 03:34:41;;;;;;;25.52;18.42;;;14.40;99.90;;;15.13;100.00;98375.28;5213755;28;20288;-60
2021/06/10 03:37:16;;;;;;;23.70;16.38;;;14.50;99.90;;;15.18;100.00;98376.38;5227157;28;20227;-60
2021/06/10 03:39:50;;;;;;;19.67;17.90;;;14.40;99.90;;;15.16;100.00;98381.44;5227851;28;20207;-60
2021/06/10 03:42:23;;;;;;;23.70;18.50;;;14.40;99.90;;;15.12;100.00;98374.41;5225827;28;20215;-60
2021/06/10 03:44:57;;;;;;;17.90;16.30;;;14.40;99.90;;;14.97;100.00;98368.53;5226626;28;20220;-60
2021/06/10 03:47:32;;;;;;;19.17;17.33;;;14.20;99.90;;;14.95;100.00;98371.03;5227026;28;20194;-60
2021/06/10 03:50:08;;;;;;;18.90;17.02;;;14.20;99.90;;;14.96;100.00;98366.75;5227107;28;20196;-60
2021/06/10 03:52:41;;;;;;;19.58;17.35;;;14.20;99.90;;;15.00;100.00;98368.69;5208987;28;20212;-60
2021/06/10 03:55:15;;;;;;;18.70;17.15;;;14.30;99.90;;;14.93;100.00;98369.19;5206693;28;20248;-60
2021/06/10 03:57:47;;;;;;;19.92;17.20;;;14.20;99.90;;;14.95;100.00;98365.00;5225838;28;20245;-60
2021/06/10 04:00:21;;;;;;;19.42;17.67;;;14.20;99.90;;;14.97;100.00;98368.53;5227067;28;20209;-60
2021/06/10 04:02:56;;;;;;;32.22;17.67;;;14.20;99.90;;;14.97;100.00;98368.53;5225710;28;20206;-60
2021/06/10 04:05:31;;;;;;;19.80;18.00;;;14.20;99.90;;;14.98;100.00;98370.28;5218502;28;20217;-60
2021/06/10 04:08:04;;;;;;;19.60;17.90;;;14.20;99.90;;;15.06;100.00;98377.56;5206652;28;20280;-60
2021/06/10 04:10:37;;;;;;;19.58;17.70;;;14.30;99.90;;;15.16;100.00;98368.56;5206781;28;20194;-60
2021/06/10 04:13:09;;;;;;;19.58;17.88;;;14.30;99.90;;;15.21;100.00;98373.94;5205931;28;20198;-60
2021/06/10 04:15:42;;;;;;;33.83;17.80;;;14.50;99.90;;;15.18;100.00;98374.69;5214874;28;20217;-61
2021/06/10 04:18:18;;;;;;;29.52;16.80;;;14.40;99.90;;;15.23;99.08;98374.91;5227077;28;20227;-60
2021/06/10 04:20:52;;;;;;;21.02;18.88;;;14.40;99.90;;;15.14;99.37;98374.47;5225665;28;20199;-60
2021/06/10 04:23:24;;;;;;;17.98;16.48;;;14.30;99.90;;;15.15;99.83;98369.41;5225810;28;20302;-60
2021/06/10 04:25:57;;;;;;;17.55;16.05;;;14.30;99.90;;;15.22;99.62;98376.63;5214886;28;20228;-60
2021/06/10 04:28:30;;;;;;;17.65;16.10;;;14.40;99.90;;;15.28;99.28;98373.41;5219456;28;20193;-60
2021/06/10 04:31:02;;;;;;;16.25;14.85;;;14.40;99.90;;;15.29;98.97;98373.50;5225918;28;20197;-60
2021/06/10 04:33:37;;;;;;;17.88;16.38;;;14.40;99.90;;;15.42;99.03;98368.91;5222602;28;20201;-60
2021/06/10 04:36:10;;;;;;;17.50;16.00;;;14.50;99.90;;;15.46;99.50;98373.41;5219557;28;20213;-60
2021/06/10 04:38:43;;;;;;;19.08;17.48;;;14.60;99.90;;;15.42;99.22;98374.94;5221309;28;20224;-60
2021/06/10 04:41:16;;;;;;;17.88;16.33;;;14.60;99.90;;;15.55;99.91;98372.13;5226831;28;20299;-60
2021/06/10 04:43:48;;;;;;;16.98;15.57;;;14.80;99.90;;;15.57;98.47;98369.63;5216459;28;20583;-61
2021/06/10 04:46:21;;;;;;;17.70;16.25;;;14.70;99.90;;;15.59;97.69;98370.56;5224049;28;20223;-60
2021/06/10 04:48:56;;;;;;;18.67;17.08;;;14.70;99.90;;;15.66;97.72;98372.63;5225030;28;20696;-61
2021/06/10 04:51:29;;;;;;;18.55;17.05;;;14.70;99.90;;;15.68;97.59;98376.19;5214221;28;20201;-60
2021/06/10 04:54:01;;;;;;;19.85;18.13;;;14.80;99.90;;;15.67;96.90;98376.94;5211949;28;20682;-61
2021/06/10 04:56:34;;;;;;;19.90;18.10;;;14.80;99.90;;;15.67;98.34;98371.78;5213690;28;20225;-61
2021/06/10 04:59:06;;;;;;;19.35;17.55;;;14.80;99.90;;;15.67;96.71;98371.78;5220937;28;20214;-60
2021/06/10 05:01:39;;;;;;;19.42;17.67;;;14.80;99.90;;;15.71;97.58;98375.44;5217746;28;20680;-60
2021/06/10 05:04:14;;;;;;;17.55;16.05;;;14.90;99.90;;;15.82;97.19;98374.22;5212022;28;20572;-61
2021/06/10 05:07:20;;;;;;;16.60;15.20;;;14.90;99.90;;;15.93;96.51;98385.00;5212190;28;20761;-60
2021/06/10 05:09:53;;;;;;;16.88;15.55;;;15.00;99.90;;;15.97;96.07;98379.19;5222593;28;20292;-60
2021/06/10 05:12:26;;;;;;;18.13;16.63;;;15.00;99.90;;;15.89;95.10;98373.69;5226109;28;20616;-60
2021/06/10 05:14:59;;;;;;;18.42;16.80;;;15.10;99.90;;;16.14;94.44;98375.66;5208887;28;20202;-61
2021/06/10 05:17:31;;;;;;;17.58;16.10;;;15.10;99.90;;;16.16;94.14;98371.41;5211217;28;20684;-61
2021/06/10 05:20:07;;;;;;;18.70;17.10;;;15.20;99.90;;;16.20;93.93;98370.75;5217671;28;20636;-59
2021/06/10 05:22:39;;;;;;;17.80;16.40;;;15.30;99.90;;;16.25;94.58;98373.50;5221806;28;20296;-60
2021/06/10 05:25:13;;;;;;;17.20;15.80;;;15.30;99.90;;;16.35;94.14;98367.94;5220961;28;20223;-60
2021/06/10 05:27:47;;;;;;;17.73;16.33;;;15.40;99.90;;;16.50;93.57;98375.44;5219111;28;20670;-60
2021/06/10 05:30:21;;;;;;;15.75;14.45;;;15.50;99.90;;;16.63;92.71;98372.56;5219427;28;20197;-60
2021/06/10 05:32:54;;;;;;;18.02;16.42;;;15.50;99.90;;;16.82;90.18;98368.19;5214220;28;20694;-59
2021/06/10 05:35:28;;;;;;;16.02;14.73;;;15.50;99.90;;;16.91;90.54;98365.09;5220930;28;20229;-60
2021/06/10 05:38:00;;;;;;;16.73;15.38;;;15.60;99.90;;;17.02;90.59;98367.28;5214740;28;20237;-60
2021/06/10 05:40:33;;;;;;;17.38;15.98;;;15.80;99.90;;;17.19;90.61;98372.22;5217610;28;20216;-59
2021/06/10 05:43:06;;;;;;;15.80;14.60;;;16.00;99.90;;;17.35;89.89;98366.84;5219402;28;21513;-59
2021/06/10 05:45:38;;;;;;;16.77;15.48;;;16.10;99.90;;;17.59;88.50;98364.31;5224775;28;20227;-59
2021/06/10 05:48:12;;;;;;;18.60;17.00;;;16.30;99.90;;;17.81;86.85;98373.78;5220903;28;20201;-59
2021/06/10 05:50:47;;;;;;;17.40;15.88;;;16.50;99.90;;;17.94;86.89;98369.91;5218946;28;20227;-59
2021/06/10 05:53:19;;;;;;;16.23;15.02;;;16.70;99.90;;;18.21;85.04;98367.44;5218859;28;20856;-60
2021/06/10 05:55:52;;;;;;;16.05;14.85;;;16.90;99.90;;;18.55;84.51;98376.38;5218705;28;20220;-59
2021/06/10 05:58:25;;;;;;;15.85;14.73;;;17.10;99.90;;;19.06;83.26;98378.97;5222292;28;20592;-60
2021/06/10 06:00:57;;;;;;;15.13;13.95;;;17.50;99.90;;;19.56;80.10;98379.63;5221945;28;20197;-58
2021/06/10 06:03:30;;;;;;;14.98;13.85;;;17.90;99.90;;;19.92;78.54;98379.88;5218296;28;20623;-60
2021/06/10 06:06:04;;;;;;;15.38;14.23;;;18.20;99.90;;;20.40;76.49;98386.34;5223435;28;20213;-59
2021/06/10 06:08:37;;;;;;;13.95;12.95;;;18.50;99.90;;;20.87;75.07;98376.34;5218231;28;20197;-59
2021/06/10 06:11:09;;;;;;;13.50;12.57;;;18.80;99.90;;;21.45;72.35;98377.75;5221737;28;20220;-59
2021/06/10 06:13:47;;;;;;;13.80;12.70;;;19.10;99.90;;;21.90;69.86;98381.31;5221247;28;20205;-59
2021/06/10 06:16:21;;;;;;;13.50;12.32;;;19.30;99.90;;;22.15;69.29;98377.44;5220492;28;20235;-60
2021/06/10 06:18:53;;;;;;;12.90;12.00;;;19.70;99.90;;;22.67;67.34;98388.88;5222724;28;20311;-60
2021/06/10 06:21:27;;;;;;;13.27;12.38;;;20.00;99.90;;;23.00;66.02;98390.34;5221108;28;20197;-60
2021/06/10 06:24:00;;;;;;;12.48;11.48;;;20.30;99.90;;;23.21;65.73;98397.59;5220169;28;20292;-58
2021/06/10 06:26:33;;;;;;;12.73;11.73;;;20.50;99.90;;;23.67;63.53;98393.09;5222335;28;20602;-60
2021/06/10 06:29:08;;;;;;;13.38;12.27;;;20.70;99.90;;;23.72;64.39;98397.56;5220678;28;20204;-60
2021/06/10 06:31:40;;;;;;;12.63;11.73;;;21.10;99.90;;;24.17;61.76;98400.69;5222167;28;20286;-60
2021/06/10 06:34:13;;;;;;;12.02;11.13;;;21.30;99.90;;;24.76;60.51;98407.47;5218869;28;20281;-60
2021/06/10 06:36:47;;;;;;;12.00;11.05;;;21.60;99.90;;;25.07;59.65;98404.25;5221139;28;20212;-60
2021/06/10 06:39:20;;;;;;;12.82;11.93;;;21.90;99.90;;;25.23;58.05;98391.31;5221304;28;20217;-60
2021/06/10 06:41:53;;;;;;;12.07;11.18;;;22.00;99.90;;;25.30;57.95;98401.84;5220869;28;20669;-60
2021/06/10 06:44:25;;;;;;;12.27;11.38;;;22.20;99.90;;;25.45;56.78;98401.06;5222336;28;20212;-60
2021/06/10 06:46:58;;;;;;;11.65;10.75;;;22.40;99.90;;;25.81;56.00;98395.19;5221385;28;20220;-60
2021/06/10 06:49:30;;;;;;;12.43;11.52;;;22.70;99.90;;;25.94;55.22;98395.25;5227391;28;20606;-60
2021/06/10 06:52:05;;;;;;;11.60;10.80;;;23.00;99.90;;;26.23;55.65;98390.13;5215474;28;20193;-60
2021/06/10 06:54:38;;;;;;;11.40;10.60;;;23.40;99.90;;;26.32;54.42;98395.38;5221521;28;20196;-60
2021/06/10 06:57:10;;;;;;;10.15;9.45;;;23.40;99.90;;;26.79;53.36;98399.03;5220210;28;20228;-60
2021/06/10 06:59:44;;;;;;;9.70;8.93;;;23.40;99.90;;;26.97;52.79;98399.03;5217807;28;20225;-60
2021/06/10 07:02:16;;;;;;;10.25;9.55;;;23.70;99.90;;;26.95;52.76;98398.13;5220190;28;20489;-60
2021/06/10 07:04:49;;;;;;;9.77;9.07;;;24.00;99.90;;;26.91;53.63;98402.53;5219735;28;20208;-60
2021/06/10 07:07:23;;;;;;;9.88;9.18;;;24.00;99.90;;;27.07;53.28;98399.88;5218369;28;20222;-60
2021/06/10 07:09:56;;;;;;;10.68;9.90;;;24.30;99.90;;;26.60;54.93;98403.34;5220895;28;20193;-61
2021/06/10 07:12:28;;;;;;;10.65;9.88;;;24.10;99.90;;;27.09;52.77;98398.16;5227972;28;20207;-60
2021/06/10 07:15:02;;;;;;;10.82;10.02;;;24.10;99.90;;;27.39;51.70;98398.16;5227473;28;20200;-60
2021/06/10 07:17:34;;;;;;;10.75;9.95;;;24.30;99.90;;;27.43;52.27;98399.03;5227591;28;20645;-61
2021/06/10 07:20:08;;;;;;;9.95;9.25;;;24.40;99.90;;;27.43;52.42;98391.16;5223501;28;20213;-61
2021/06/10 07:22:47;;;;;;;9.70;9.05;;;24.70;99.90;;;28.04;50.39;98405.88;5224384;28;20727;-61
2021/06/10 07:25:20;;;;;;;9.30;8.70;;;24.80;99.90;;;28.03;50.60;98401.50;5223957;28;20818;-61
2021/06/10 07:27:53;;;;;;;9.90;9.23;;;24.90;99.90;;;28.13;49.66;98403.25;5221853;28;20204;-61
2021/06/10 07:30:26;;;;;;;9.90;9.20;;;25.10;99.90;;;28.19;49.25;98405.84;5218450;28;20200;-61
2021/06/10 07:32:58;;;;;;;9.80;9.10;;;25.40;99.90;;;28.06;50.23;98401.50;5206796;28;20855;-61
2021/06/10 07:35:33;;;;;;;9.88;9.20;;;25.60;99.90;;;28.50;48.46;98403.06;5222375;28;20227;-61
2021/06/10 07:38:09;;;;;;;10.43;9.73;;;25.60;99.90;;;28.79;47.77;98402.00;5227195;28;20193;-60
2021/06/10 07:40:43;;;;;;;9.70;9.00;;;25.60;99.90;;;28.78;48.41;98402.88;5227803;28;20227;-60
2021/06/10 07:43:15;;;;;;;10.13;9.35;;;25.60;99.90;;;28.92;48.02;98401.88;5226949;28;20649;-62
2021/06/10 07:45:48;;;;;;;10.50;9.80;;;25.90;99.90;;;29.06;47.39;98404.44;5225698;28;20300;-61
2021/06/10 07:48:21;;;;;;;10.27;9.57;;;26.10;99.90;;;29.15;46.58;98407.00;5215489;28;20196;-61
2021/06/10 07:50:53;;;;;;;9.20;8.60;;;26.20;99.90;;;29.35;46.07;98395.41;5227652;28;20203;-61
2021/06/10 07:53:27;;;;;;;8.88;8.27;;;26.20;99.90;;;29.53;45.13;98400.53;5224126;28;20295;-60
2021/06/10 07:55:59;;;;;;;8.95;8.40;;;26.50;99.90;;;29.55;46.70;98406.63;5215230;28;20304;-61
2021/06/10 07:58:33;;;;;;;9.68;8.88;;;26.50;99.90;;;29.72;45.22;98410.88;5227480;28;20193;-61
2021/06/10 08:01:06;;;;;;;10.05;9.35;;;26.50;99.90;;;29.77;46.01;98409.94;5219529;28;20641;-60
2021/06/10 08:03:39;;;;;;;9.38;8.65;;;26.60;99.90;;;29.67;45.93;98403.03;5225702;28;20201;-61
2021/06/10 08:06:11;;;;;;;9.70;9.00;;;26.50;99.90;;;30.19;44.48;98398.88;5226998;28;20224;-61
2021/06/10 08:08:45;;;;;;;9.02;8.40;;;26.90;99.90;;;30.40;44.21;98401.28;5214931;28;20276;-61
2021/06/10 08:11:18;;;;;;;9.40;8.70;;;27.30;99.90;;;30.63;43.84;98400.09;5206056;28;20688;-60
2021/06/10 08:13:51;;;;;;;8.98;8.38;;;27.20;99.90;;;30.86;43.97;98394.50;5224262;28;20196;-61
2021/06/10 08:16:24;;;;;;;9.93;9.13;;;27.50;99.90;;;30.69;43.66;98397.34;5224242;28;20639;-61
2021/06/10 08:18:57;;;;;;;9.45;8.75;;;27.20;99.90;;;30.37;44.23;98396.06;5206703;28;20205;-61
2021/06/10 08:21:32;;;;;;;9.82;9.10;;;27.20;99.90;;;30.19;44.42;98396.25;5206632;28;20297;-61
2021/06/10 08:24:07;;;;;;;9.50;8.82;;;27.20;99.90;;;29.86;44.90;98387.88;5205887;28;20208;-61
2021/06/10 08:26:41;;;;;;;9.13;8.50;;;27.10;99.90;;;29.95;45.28;98387.75;5212613;28;20291;-61
2021/06/10 08:29:14;;;;;;;9.38;8.57;;;27.20;99.90;;;29.91;46.31;98395.75;5225578;28;20192;-61
2021/06/10 08:31:47;;;;;;;9.73;9.13;;;27.60;99.90;;;29.80;45.34;98386.19;5226487;28;20199;-61
2021/06/10 08:34:20;;;;;;;9.18;8.57;;;27.40;99.90;;;29.58;46.62;98382.88;5226721;28;20291;-61
2021/06/10 08:36:53;;;;;;;8.80;8.13;;;27.30;99.90;;;29.75;46.47;98379.22;5226860;28;20220;-60
2021/06/10 08:39:28;;;;;;;9.05;8.45;;;27.40;99.90;;;29.64;45.89;98384.59;5226025;28;20224;-60
2021/06/10 08:42:01;;;;;;;8.85;8.25;;;27.50;99.90;;;29.54;46.90;98381.19;5226440;28;20196;-61
2021/06/10 08:44:35;;;;;;;8.63;8.13;;;27.60;99.90;;;29.64;46.77;98380.19;5225585;28;20295;-61
2021/06/10 08:47:08;;;;;;;8.55;7.95;;;27.70;99.90;;;29.69;46.75;98380.16;5226771;28;20605;-61
2021/06/10 08:49:45;;;;;;;9.32;8.73;;;28.10;99.90;;;29.69;45.82;98376.66;5226168;28;20208;-61
2021/06/10 08:52:17;;;;;;;9.32;8.73;;;28.30;99.90;;;29.50;46.44;98376.81;5226761;28;20266;-61
2021/06/10 08:54:51;;;;;;;10.90;10.10;;;28.00;99.90;;;28.64;48.80;98379.28;5226122;28;20197;-59
2021/06/10 08:57:24;;;;;;;9.98;9.27;;;27.50;99.90;;;28.92;47.85;98374.69;5226103;28;20205;-61
2021/06/10 08:59:57;;;;;;;8.73;8.10;;;27.40;99.90;;;29.16;47.62;98368.41;5205841;28;20232;-61
2021/06/10 09:02:29;;;;;;;9.45;8.75;;;27.70;99.90;;;29.34;46.37;98368.22;5218058;28;20228;-61
2021/06/10 09:05:04;;;;;;;9.57;8.98;;;27.80;99.90;;;29.19;46.05;98368.38;5225916;28;20232;-61
2021/06/10 09:07:39;;;;;;;10.43;9.73;;;27.60;99.90;;;28.89;46.78;98378.22;5226782;28;20548;-61
2021/06/10 09:10:14;;;;;;;10.02;9.30;;;27.40;99.90;;;28.53;48.57;98374.13;5226526;28;20200;-60
2021/06/10 09:12:52;;;;;;;9.65;8.95;;;27.20;99.90;;;28.52;48.23;98378.50;5224539;28;20362;-60
2021/06/10 09:15:29;;;;;;;9.50;8.90;;;27.10;99.90;;;28.55;47.63;98379.34;5224613;28;20238;-61
2021/06/10 09:18:02;;;;;;;9.00;8.40;;;27.20;99.90;;;28.56;47.02;98383.72;5206140;28;20236;-60
2021/06/10 09:20:42;;;;;;;9.93;9.15;;;27.10;99.90;;;28.65;46.93;98379.28;5215031;28;20305;-61
2021/06/10 09:23:22;;;;;;;10.45;9.45;;;27.40;99.90;;;28.49;47.71;98380.28;5219388;28;20205;-60
2021/06/10 09:26:04;;;;;;;9.77;9.18;;;27.40;99.90;;;28.75;47.12;98373.06;5225756;28;20228;-60
2021/06/10 09:28:39;;;;;;;9.80;9.10;;;27.30;99.90;;;28.79;47.48;98373.94;5225584;28;20197;-61
2021/06/10 09:31:12;;;;;;;9.73;8.93;;;27.50;99.90;;;28.54;47.69;98373.22;5225661;28;20290;-63
2021/06/10 09:33:45;;;;;;;9.80;9.15;;;27.40;99.90;;;28.42;48.28;98374.19;5223608;28;20203;-63
2021/06/10 09:36:20;;;;;;;9.93;9.27;;;27.20;99.90;;;28.38;49.37;98371.53;5225732;28;20227;-63
2021/06/10 09:39:06;;;;;;;9.88;9.27;;;27.40;99.90;;;28.74;48.15;98370.47;5225128;28;20193;-63
2021/06/10 09:42:03;;;;;;;9.80;9.00;;;27.50;99.90;;;28.98;46.95;98375.50;5225570;28;20287;-62
2021/06/10 09:44:41;;;;;;;10.25;9.55;;;27.80;99.90;;;29.04;47.31;98369.34;5205641;28;20299;-63
2021/06/10 09:47:13;;;;;;;10.93;10.13;;;27.90;99.70;;;29.15;46.06;98364.88;5215713;28;20587;-63
2021/06/10 09:49:46;;;;;;;10.75;9.93;;;27.90;99.00;;;29.12;46.12;98362.25;5225280;28;20193;-64
2021/06/10 09:52:20;;;;;;;10.15;9.35;;;28.00;98.70;;;28.99;45.90;98355.34;5225138;28;20250;-63
2021/06/10 09:54:55;;;;;;;10.05;9.32;;;27.80;98.70;;;28.85;46.06;98355.47;5224718;28;20318;-63
2021/06/10 09:57:29;;;;;;;11.50;10.60;;;27.60;98.50;;;28.90;44.98;98350.13;5225514;28;20214;-63
2021/06/10 10:00:01;;;;;;;10.60;9.98;;;27.60;98.40;;;28.74;46.04;98347.66;5225610;28;20231;-63
2021/06/10 10:02:34;;;;;;;9.55;8.85;;;27.60;98.30;;;28.37;47.74;98348.75;5224228;28;20193;-63
2021/06/10 10:05:09;;;;;;;10.43;9.63;;;27.30;99.60;;;28.43;46.84;98348.75;5212987;28;20204;-63
2021/06/10 10:07:41;;;;;;;10.05;9.35;;;27.40;99.00;;;28.63;47.82;98345.97;5215280;28;20251;-63
2021/06/10 10:10:15;;;;;;;10.05;9.43;;;27.40;99.60;;;28.74;47.37;98345.00;5211676;28;20201;-63
2021/06/10 10:12:50;;;;;;;10.00;9.20;;;27.60;99.30;;;28.83;45.36;98335.31;5216468;28;20193;-63
2021/06/10 10:15:24;;;;;;;10.30;9.60;;;27.60;98.10;;;28.62;47.34;98339.00;5207877;28;20312;-63
2021/06/10 10:17:56;;;;;;;10.27;9.57;;;27.50;99.30;;;28.73;45.86;98334.47;5221223;28;20199;-63
2021/06/10 10:20:29;;;;;;;9.45;8.75;;;27.60;97.70;;;28.74;47.06;98334.47;5209684;28;20606;-63
2021/06/10 10:23:02;;;;;;;9.90;9.20;;;27.50;99.10;;;28.84;45.07;98327.38;5221552;28;20291;-62
2021/06/10 10:25:35;;;;;;;9.18;8.50;;;27.60;97.20;;;28.75;45.16;98324.81;5222288;28;20229;-63
2021/06/10 10:28:12;;;;;;;9.63;8.93;;;27.60;97.50;;;28.80;43.41;98322.16;5215310;28;20246;-62
2021/06/10 10:30:46;;;;;;;9.32;8.73;;;27.60;96.00;;;28.78;42.92;98318.66;5219419;28;20197;-63
2021/06/10 10:33:22;;;;;;;8.90;8.30;;;27.70;96.60;;;28.80;42.75;98316.91;5224105;28;20196;-60
2021/06/10 10:35:57;;;;;;;8.90;8.40;;;27.60;95.90;;;28.87;41.81;98313.31;5219607;28;20216;-61